sensor_id;sensor_type;location;lat;lon;timestamp;temperature;humidity
22416;DHT22;12204;50.600;4.608;2023-02-12T08:56:40;16.60;73.00
22416;DHT22;12204;50.600;4.608;2023-02-12T09:01:49;16.70;73.50
22416;DHT22;12204;50.600;4.608;2023-02-12T09:06:53;16.70;73.50
22416;DHT22;12204;50.600;4.608;2023-02-12T09:11:58;16.60;73.40
22416;DHT22;12204;50.600;4.608;2023-02-12T09:17:02;16.60;73.40
22416;DHT22;12204;50.600;4.608;2023-02-12T09:22:05;16.60;73.40
22416;DHT22;12204;50.600;4.608;2023-02-12T09:27:10;16.60;73.50
22416;DHT22;12204;50.600;4.608;2023-02-12T09:32:14;16.60;73.40
22416;DHT22;12204;50.600;4.608;2023-02-12T09:37:20;16.60;73.30
22416;DHT22;12204;50.600;4.608;2023-02-12T09:42:38;16.60;73.30
22416;DHT22;12204;50.600;4.608;2023-02-12T09:47:59;16.60;73.40
22416;DHT22;12204;50.600;4.608;2023-02-12T09:53:18;16.60;73.50
22416;DHT22;12204;50.600;4.608;2023-02-12T09:58:30;16.60;73.30
22416;DHT22;12204;50.600;4.608;2023-02-12T10:03:37;16.60;73.30
22416;DHT22;12204;50.600;4.608;2023-02-12T10:09:19;16.60;73.40
22416;DHT22;12204;50.600;4.608;2023-02-12T10:14:48;16.60;73.40
22416;DHT22;12204;50.600;4.608;2023-02-12T10:20:39;16.60;73.50
22416;DHT22;12204;50.600;4.608;2023-02-12T10:26:05;16.60;73.60
22416;DHT22;12204;50.600;4.608;2023-02-12T10:31:20;16.70;73.50
22416;DHT22;12204;50.600;4.608;2023-02-12T10:36:38;16.70;73.50
22416;DHT22;12204;50.600;4.608;2023-02-12T10:41:51;16.60;73.40
22416;DHT22;12204;50.600;4.608;2023-02-12T10:47:00;16.70;73.60
22416;DHT22;12204;50.600;4.608;2023-02-12T10:52:10;16.70;73.70
22416;DHT22;12204;50.600;4.608;2023-02-12T10:57:20;16.60;73.60
22416;DHT22;12204;50.600;4.608;2023-02-12T11:02:28;16.70;73.50
22416;DHT22;12204;50.600;4.608;2023-02-12T11:07:44;16.70;73.60
22416;DHT22;12204;50.600;4.608;2023-02-12T11:12:50;16.70;73.50
22416;DHT22;12204;50.600;4.608;2023-02-12T11:23:44;16.70;73.60
22416;DHT22;12204;50.600;4.608;2023-02-12T11:28:53;16.70;73.50
22416;DHT22;12204;50.600;4.608;2023-02-12T11:34:13;16.70;73.60
22416;DHT22;12204;50.600;4.608;2023-02-12T11:39:22;16.70;73.70
22416;DHT22;12204;50.600;4.608;2023-02-12T11:44:33;16.70;73.60
22416;DHT22;12204;50.600;4.608;2023-02-12T11:49:41;16.70;73.60
22416;DHT22;12204;50.600;4.608;2023-02-12T11:54:53;16.70;73.70
22416;DHT22;12204;50.600;4.608;2023-02-12T11:59:59;16.70;73.70
22416;DHT22;12204;50.600;4.608;2023-02-12T12:05:08;16.70;73.70
22416;DHT22;12204;50.600;4.608;2023-02-12T12:10:20;16.70;73.70
22416;DHT22;12204;50.600;4.608;2023-02-12T12:15:33;16.70;73.70
22416;DHT22;12204;50.600;4.608;2023-02-12T12:21:00;16.70;73.70
22416;DHT22;12204;50.600;4.608;2023-02-12T12:26:16;16.70;73.70
22416;DHT22;12204;50.600;4.608;2023-02-12T12:31:28;16.70;73.70
22416;DHT22;12204;50.600;4.608;2023-02-12T12:42:36;16.70;73.70
22416;DHT22;12204;50.600;4.608;2023-02-12T12:48:05;16.70;73.70
22416;DHT22;12204;50.600;4.608;2023-02-12T12:53:28;16.70;73.80
22416;DHT22;12204;50.600;4.608;2023-02-12T12:59:00;16.70;73.80
22416;DHT22;12204;50.600;4.608;2023-02-12T13:04:55;16.70;73.80
22416;DHT22;12204;50.600;4.608;2023-02-12T13:10:33;16.70;73.70
22416;DHT22;12204;50.600;4.608;2023-02-12T13:15:46;16.70;73.80
22416;DHT22;12204;50.600;4.608;2023-02-12T13:20:58;16.70;73.80
22416;DHT22;12204;50.600;4.608;2023-02-12T13:26:13;16.70;73.80
22416;DHT22;12204;50.600;4.608;2023-02-12T13:31:24;16.70;73.90
22416;DHT22;12204;50.600;4.608;2023-02-12T13:36:35;16.70;73.90
22416;DHT22;12204;50.600;4.608;2023-02-12T13:41:45;16.70;73.90
22416;DHT22;12204;50.600;4.608;2023-02-12T13:47:04;16.70;73.90
22416;DHT22;12204;50.600;4.608;2023-02-12T13:52:22;16.70;73.90
22416;DHT22;12204;50.600;4.608;2023-02-12T13:57:31;16.70;74.00
22416;DHT22;12204;50.600;4.608;2023-02-12T14:02:46;16.70;74.00
22416;DHT22;12204;50.600;4.608;2023-02-12T14:07:53;16.70;74.00
22416;DHT22;12204;50.600;4.608;2023-02-12T14:13:16;16.70;73.90
22416;DHT22;12204;50.600;4.608;2023-02-12T14:18:32;16.70;74.00
22416;DHT22;12204;50.600;4.608;2023-02-12T14:23:38;16.70;73.90
22416;DHT22;12204;50.600;4.608;2023-02-12T14:28:48;16.70;74.00
22416;DHT22;12204;50.600;4.608;2023-02-12T14:39:46;16.70;74.00
22416;DHT22;12204;50.600;4.608;2023-02-12T14:44:54;16.70;74.00
22416;DHT22;12204;50.600;4.608;2023-02-12T14:50:02;16.70;74.00
22416;DHT22;12204;50.600;4.608;2023-02-12T14:55:19;16.70;74.00
22416;DHT22;12204;50.600;4.608;2023-02-12T15:00:35;16.70;74.00
22416;DHT22;12204;50.600;4.608;2023-02-12T15:05:46;16.70;74.00
22416;DHT22;12204;50.600;4.608;2023-02-12T15:11:01;16.70;74.00
22416;DHT22;12204;50.600;4.608;2023-02-12T15:16:15;16.70;74.00
22416;DHT22;12204;50.600;4.608;2023-02-12T15:21:29;16.70;74.00
22416;DHT22;12204;50.600;4.608;2023-02-12T15:26:38;16.70;74.00
22416;DHT22;12204;50.600;4.608;2023-02-12T15:31:49;16.70;74.00
22416;DHT22;12204;50.600;4.608;2023-02-12T15:36:59;16.70;74.80
22416;DHT22;12204;50.600;4.608;2023-02-12T15:42:04;16.70;74.10
22416;DHT22;12204;50.600;4.608;2023-02-12T15:47:30;16.80;74.10
22416;DHT22;12204;50.600;4.608;2023-02-12T15:52:39;16.80;74.20
22416;DHT22;12204;50.600;4.608;2023-02-12T15:57:48;16.70;74.10
22416;DHT22;12204;50.600;4.608;2023-02-12T16:02:52;16.70;74.10
22416;DHT22;12204;50.600;4.608;2023-02-12T16:07:57;16.70;74.10
22416;DHT22;12204;50.600;4.608;2023-02-12T16:13:01;16.70;74.10
22416;DHT22;12204;50.600;4.608;2023-02-12T16:18:06;16.80;74.20
22416;DHT22;12204;50.600;4.608;2023-02-12T16:23:27;16.80;74.10
22416;DHT22;12204;50.600;4.608;2023-02-12T16:28:31;16.70;74.10
22416;DHT22;12204;50.600;4.608;2023-02-12T16:33:41;16.80;74.20
22416;DHT22;12204;50.600;4.608;2023-02-12T16:38:52;16.70;74.10
22416;DHT22;12204;50.600;4.608;2023-02-12T16:44:27;16.70;74.20
22416;DHT22;12204;50.600;4.608;2023-02-12T16:49:32;16.80;74.20
22416;DHT22;12204;50.600;4.608;2023-02-12T16:54:37;16.80;74.30
22416;DHT22;12204;50.600;4.608;2023-02-12T16:59:41;16.70;74.20
22416;DHT22;12204;50.600;4.608;2023-02-12T17:04:46;16.70;74.20
22416;DHT22;12204;50.600;4.608;2023-02-12T17:09:50;16.70;74.20
22416;DHT22;12204;50.600;4.608;2023-02-12T17:14:54;16.80;74.20
22416;DHT22;12204;50.600;4.608;2023-02-12T17:19:57;16.70;74.20
22416;DHT22;12204;50.600;4.608;2023-02-12T17:25:05;16.70;74.20
22416;DHT22;12204;50.600;4.608;2023-02-12T17:30:13;16.70;74.20
22416;DHT22;12204;50.600;4.608;2023-02-12T17:35:17;16.80;74.30
22416;DHT22;12204;50.600;4.608;2023-02-12T17:40:22;16.70;74.20
22416;DHT22;12204;50.600;4.608;2023-02-12T17:45:26;16.80;74.30
22416;DHT22;12204;50.600;4.608;2023-02-12T17:50:29;16.80;74.30
22416;DHT22;12204;50.600;4.608;2023-02-12T17:55:36;16.80;74.30
22416;DHT22;12204;50.600;4.608;2023-02-12T18:00:40;16.70;74.30
22416;DHT22;12204;50.600;4.608;2023-02-12T18:05:44;16.80;74.30
22416;DHT22;12204;50.600;4.608;2023-02-12T18:10:49;16.70;74.20
22416;DHT22;12204;50.600;4.608;2023-02-12T18:15:52;16.70;74.20
22416;DHT22;12204;50.600;4.608;2023-02-12T18:20:56;16.80;74.30
22416;DHT22;12204;50.600;4.608;2023-02-12T18:26:04;16.70;74.20
22416;DHT22;12204;50.600;4.608;2023-02-12T18:31:10;16.70;74.30
22416;DHT22;12204;50.600;4.608;2023-02-12T18:36:15;16.80;74.30
22416;DHT22;12204;50.600;4.608;2023-02-12T18:41:23;16.70;74.30
22416;DHT22;12204;50.600;4.608;2023-02-12T18:46:30;16.80;74.30
22416;DHT22;12204;50.600;4.608;2023-02-12T18:51:34;16.70;74.30
22416;DHT22;12204;50.600;4.608;2023-02-12T18:56:43;16.80;74.40
22416;DHT22;12204;50.600;4.608;2023-02-12T19:01:49;16.70;74.40
22416;DHT22;12204;50.600;4.608;2023-02-12T19:06:53;16.80;74.40
22416;DHT22;12204;50.600;4.608;2023-02-12T19:11:59;16.80;74.40
22416;DHT22;12204;50.600;4.608;2023-02-12T19:17:02;16.70;74.30
22416;DHT22;12204;50.600;4.608;2023-02-12T19:22:06;16.70;74.40
22416;DHT22;12204;50.600;4.608;2023-02-12T19:27:10;16.80;74.40
22416;DHT22;12204;50.600;4.608;2023-02-12T19:32:14;16.80;74.40
22416;DHT22;12204;50.600;4.608;2023-02-12T19:37:17;16.80;74.30
22416;DHT22;12204;50.600;4.608;2023-02-12T19:42:22;16.80;74.40
22416;DHT22;12204;50.600;4.608;2023-02-12T19:47:26;16.80;74.50
22416;DHT22;12204;50.600;4.608;2023-02-12T19:52:29;16.80;74.50
22416;DHT22;12204;50.600;4.608;2023-02-12T19:57:34;16.80;74.40
22416;DHT22;12204;50.600;4.608;2023-02-12T20:02:39;16.80;74.50
22416;DHT22;12204;50.600;4.608;2023-02-12T20:07:44;16.80;74.50
22416;DHT22;12204;50.600;4.608;2023-02-12T20:12:49;16.80;74.40
22416;DHT22;12204;50.600;4.608;2023-02-12T20:17:53;16.80;74.40
22416;DHT22;12204;50.600;4.608;2023-02-12T20:22:57;16.80;74.50
22416;DHT22;12204;50.600;4.608;2023-02-12T20:28:02;16.80;74.50
22416;DHT22;12204;50.600;4.608;2023-02-12T20:33:05;16.80;74.50
22416;DHT22;12204;50.600;4.608;2023-02-12T20:38:09;16.80;74.50
22416;DHT22;12204;50.600;4.608;2023-02-12T20:43:14;16.80;74.40
22416;DHT22;12204;50.600;4.608;2023-02-12T20:48:18;16.80;74.50
22416;DHT22;12204;50.600;4.608;2023-02-12T20:53:22;16.80;74.50
22416;DHT22;12204;50.600;4.608;2023-02-12T20:58:28;16.80;74.50
22416;DHT22;12204;50.600;4.608;2023-02-12T21:03:33;16.80;74.50
22416;DHT22;12204;50.600;4.608;2023-02-12T21:08:37;16.80;74.50
22416;DHT22;12204;50.600;4.608;2023-02-12T21:13:45;16.80;74.50
22416;DHT22;12204;50.600;4.608;2023-02-12T21:19:03;16.80;74.60
22416;DHT22;12204;50.600;4.608;2023-02-12T21:24:10;16.80;74.50
22416;DHT22;12204;50.600;4.608;2023-02-12T21:29:18;16.80;74.50
22416;DHT22;12204;50.600;4.608;2023-02-12T21:34:22;16.80;74.50
22416;DHT22;12204;50.600;4.608;2023-02-12T21:39:27;16.80;74.50
22416;DHT22;12204;50.600;4.608;2023-02-12T21:44:32;16.80;74.50
22416;DHT22;12204;50.600;4.608;2023-02-12T21:49:37;16.80;74.60
22416;DHT22;12204;50.600;4.608;2023-02-12T21:54:41;16.80;74.50
22416;DHT22;12204;50.600;4.608;2023-02-12T21:59:46;16.80;74.50
22416;DHT22;12204;50.600;4.608;2023-02-12T22:04:52;16.80;74.50
22416;DHT22;12204;50.600;4.608;2023-02-12T22:09:56;16.80;74.50
22416;DHT22;12204;50.600;4.608;2023-02-12T22:15:00;16.80;74.70
22416;DHT22;12204;50.600;4.608;2023-02-12T22:20:05;16.80;74.50
22416;DHT22;12204;50.600;4.608;2023-02-12T22:25:10;16.80;74.60
22416;DHT22;12204;50.600;4.608;2023-02-12T22:30:15;16.80;74.50
22416;DHT22;12204;50.600;4.608;2023-02-12T22:35:19;16.80;74.60
22416;DHT22;12204;50.600;4.608;2023-02-12T22:40:23;16.80;74.60
22416;DHT22;12204;50.600;4.608;2023-02-12T22:45:28;16.80;74.60
22416;DHT22;12204;50.600;4.608;2023-02-12T22:50:31;16.80;74.50
22416;DHT22;12204;50.600;4.608;2023-02-12T22:55:36;16.80;74.50
22416;DHT22;12204;50.600;4.608;2023-02-12T23:00:41;16.80;74.50
22416;DHT22;12204;50.600;4.608;2023-02-12T23:05:44;16.80;74.60
22416;DHT22;12204;50.600;4.608;2023-02-12T23:10:48;16.80;74.60
22416;DHT22;12204;50.600;4.608;2023-02-12T23:15:53;16.80;74.60
22416;DHT22;12204;50.600;4.608;2023-02-12T23:20:56;16.80;74.60
22416;DHT22;12204;50.600;4.608;2023-02-12T23:26:01;16.80;74.60
22416;DHT22;12204;50.600;4.608;2023-02-12T23:31:06;16.80;75.30
22416;DHT22;12204;50.600;4.608;2023-02-12T23:36:09;16.80;74.60
22416;DHT22;12204;50.600;4.608;2023-02-12T23:41:13;16.80;74.60
22416;DHT22;12204;50.600;4.608;2023-02-12T23:46:18;16.80;74.60
22416;DHT22;12204;50.600;4.608;2023-02-12T23:51:21;16.80;74.60
22416;DHT22;12204;50.600;4.608;2023-02-12T23:56:25;16.80;74.50
